createdAt,value
2018-06-23T00:02:48.504Z,54.08
2018-06-23T00:06:52.001Z,52.86
2018-06-23T00:10:55.496Z,53.17
2018-06-23T00:14:58.979Z,53.57
2018-06-23T00:19:02.443Z,52.79
2018-06-23T00:23:05.933Z,53.35
2018-06-23T00:27:09.402Z,52.48
2018-06-23T00:31:13.954Z,52.72
2018-06-23T00:35:17.527Z,52.58
2018-06-23T00:39:21.066Z,52.43
2018-06-23T00:43:24.630Z,52.16
2018-06-23T00:47:28.182Z,52.04
2018-06-23T00:51:31.660Z,52.15
2018-06-23T00:55:35.331Z,52.78
2018-06-23T00:59:44.636Z,52.45
2018-06-23T01:03:48.098Z,52.73
2018-06-23T01:07:51.638Z,53.17
2018-06-23T01:11:55.110Z,52.99
2018-06-23T01:15:58.570Z,52.92
2018-06-23T01:20:02.047Z,53.27
2018-06-23T01:24:05.610Z,52.89
2018-06-23T01:28:09.066Z,53.21
2018-06-23T01:32:12.565Z,53.36
2018-06-23T01:36:16.016Z,53.71
2018-06-23T01:40:19.502Z,53.58
2018-06-23T01:44:22.960Z,52.66
2018-06-23T01:48:26.502Z,53.07
2018-06-23T01:52:31.038Z,53.83
2018-06-23T01:56:34.786Z,53.44
2018-06-23T02:00:38.250Z,53.89
2018-06-23T02:04:41.714Z,54.37
2018-06-23T02:08:45.210Z,54.04
2018-06-23T02:12:48.698Z,54.41
2018-06-23T02:16:57.691Z,54.41
2018-06-23T02:21:06.543Z,54.52
2018-06-23T02:25:15.390Z,54.78
2018-06-23T02:29:24.144Z,55.01
2018-06-23T02:33:32.851Z,55.75
2018-06-23T02:37:38.061Z,55.64
2018-06-23T02:41:41.553Z,56.53
2018-06-23T02:45:44.994Z,57.89
2018-06-23T02:49:48.457Z,57.74
2018-06-23T02:53:51.909Z,57.79
2018-06-23T02:57:55.418Z,57.79
2018-06-23T03:01:58.911Z,57.63
2018-06-23T03:06:02.364Z,57.63
2018-06-23T03:10:06.890Z,57.81
2018-06-23T03:14:11.386Z,58.08
2018-06-23T03:18:14.875Z,57.66
2018-06-23T03:22:18.570Z,57.57
2018-06-23T03:26:22.019Z,57.43
2018-06-23T03:30:25.458Z,57.03
2018-06-23T03:34:30.222Z,57.64
2018-06-23T03:38:33.683Z,56.43
2018-06-23T03:42:37.227Z,57.61
2018-06-23T03:46:40.726Z,57.58
2018-06-23T03:50:44.208Z,57.17
2018-06-23T03:54:47.651Z,56.49
2018-06-23T03:58:51.107Z,57.14
2018-06-23T04:02:54.569Z,56.77
2018-06-23T04:06:58.022Z,57.69
2018-06-23T04:11:01.475Z,57.01
2018-06-23T04:15:05.836Z,56.91
2018-06-23T04:19:09.294Z,56.59
2018-06-23T04:23:12.744Z,57.20
2018-06-23T04:27:16.270Z,56.83
2018-06-23T04:31:19.719Z,56.66
2018-06-23T04:35:24.187Z,56.64
2018-06-23T04:39:27.738Z,56.74
2018-06-23T04:43:31.185Z,56.55
2018-06-23T04:47:34.625Z,56.09
2018-06-23T04:51:38.136Z,56.14
2018-06-23T04:55:41.668Z,55.77
2018-06-23T04:59:45.236Z,56.13
2018-06-23T05:03:48.707Z,55.72
2018-06-23T05:07:52.216Z,55.47
2018-06-23T05:11:55.695Z,55.17
2018-06-23T05:15:59.162Z,55.55
2018-06-23T05:20:02.619Z,55.06
2018-06-23T05:24:06.099Z,55.38
2018-06-23T05:28:09.615Z,56.09
2018-06-23T05:32:13.049Z,55.05
2018-06-23T05:36:16.705Z,55.83
2018-06-23T05:40:20.136Z,55.16
2018-06-23T05:44:23.591Z,55.26
2018-06-23T05:48:27.045Z,55.37
2018-06-23T05:52:30.489Z,55.38
2018-06-23T05:56:33.941Z,54.94
2018-06-23T06:00:37.591Z,55.39
2018-06-23T06:04:42.663Z,54.41
2018-06-23T06:08:46.184Z,55.37
2018-06-23T06:12:49.783Z,54.04
2018-06-23T06:17:33.793Z,54.02
2018-06-23T06:21:37.245Z,54.36
2018-06-23T06:25:40.735Z,53.98
2018-06-23T06:29:44.465Z,53.07
2018-06-23T06:33:47.929Z,52.66
2018-06-23T06:37:51.703Z,52.48
2018-06-23T06:41:55.139Z,52.36
2018-06-23T06:45:58.607Z,52.83
2018-06-23T06:50:02.097Z,52.91
2018-06-23T06:54:05.600Z,53.22
2018-06-23T06:58:09.598Z,53.56
2018-06-23T07:02:15.157Z,52.38
2018-06-23T07:06:18.715Z,53.24
2018-06-23T07:10:22.248Z,52.20
2018-06-23T07:14:25.769Z,52.76
2018-06-23T07:18:29.285Z,51.48
2018-06-23T07:22:32.748Z,51.39
2018-06-23T07:26:36.847Z,51.30
2018-06-23T07:30:40.338Z,51.66
2018-06-23T07:34:44.032Z,50.50
2018-06-23T07:38:47.525Z,51.47
2018-06-23T07:42:52.085Z,49.86
2018-06-23T07:46:55.695Z,50.44
2018-06-23T07:50:59.245Z,49.99
2018-06-23T07:55:02.727Z,50.15
2018-06-23T07:59:06.166Z,50.07
2018-06-23T08:03:09.862Z,50.28
2018-06-23T08:11:41.265Z,50.09
2018-06-23T08:15:45.743Z,50.30
2018-06-23T08:19:49.246Z,51.30
2018-06-23T08:23:52.716Z,51.18
2018-06-23T08:27:57.504Z,51.72
2018-06-23T08:32:01.110Z,52.13
2018-06-23T08:36:04.557Z,53.55
2018-06-23T08:40:08.510Z,55.91
2018-06-23T08:44:12.167Z,55.65
2018-06-23T08:48:16.109Z,56.76
2018-06-23T08:52:20.856Z,58.58
2018-06-23T08:56:24.514Z,57.29
2018-06-23T09:00:28.167Z,57.43
2018-06-23T09:04:32.706Z,56.55
2018-06-23T09:08:36.209Z,56.26
2018-06-23T09:12:39.840Z,55.56
2018-06-23T09:16:43.694Z,55.03
2018-06-23T09:20:47.119Z,55.02
2018-06-23T09:24:53.593Z,53.58
2018-06-23T09:28:57.215Z,53.78
2018-06-23T09:33:00.806Z,54.02
2018-06-23T09:37:04.281Z,54.47
2018-06-23T09:41:07.884Z,54.45
2018-06-23T09:45:11.338Z,56.47
2018-06-23T09:49:14.755Z,55.72
2018-06-23T09:53:18.227Z,54.71
2018-06-23T09:57:21.770Z,53.04
2018-06-23T10:01:25.213Z,53.49
2018-06-23T10:05:28.996Z,53.16
2018-06-23T10:09:32.519Z,51.75
2018-06-23T10:13:36.979Z,50.57
2018-06-23T10:17:40.472Z,49.23
2018-06-23T10:21:43.897Z,48.58
2018-06-23T10:25:47.399Z,48.75
2018-06-23T10:29:50.912Z,46.61
2018-06-23T10:33:54.422Z,47.88
2018-06-23T10:37:57.895Z,46.11
2018-06-23T10:42:01.390Z,46.13
2018-06-23T10:46:05.050Z,44.55
2018-06-23T10:50:08.750Z,42.61
2018-06-23T10:54:31.285Z,41.58
2018-06-23T10:58:55.459Z,42.46
2018-06-23T11:02:59.980Z,42.09
2018-06-23T11:07:03.839Z,41.00
2018-06-23T11:11:07.536Z,41.26
2018-06-23T11:15:11.436Z,41.02
2018-06-23T11:19:15.520Z,40.51
2018-06-23T11:23:19.535Z,41.16
2018-06-23T11:27:23.339Z,40.54
2018-06-23T11:31:27.191Z,40.20
2018-06-23T11:35:30.702Z,39.63
2018-06-23T11:39:34.213Z,39.68
2018-06-23T11:43:37.723Z,39.59
2018-06-23T11:47:42.268Z,39.65
2018-06-23T11:51:45.727Z,41.53
2018-06-23T11:55:49.223Z,42.84
2018-06-23T11:59:52.729Z,42.71
2018-06-23T12:03:56.184Z,43.44
2018-06-23T12:07:59.694Z,44.00
2018-06-23T12:12:03.301Z,42.72
2018-06-23T12:16:06.746Z,42.31
2018-06-23T12:20:10.344Z,42.36
2018-06-23T12:24:14.759Z,41.01
2018-06-23T12:28:18.358Z,41.36
2018-06-23T12:32:21.866Z,42.63
2018-06-23T12:36:26.550Z,40.81
2018-06-23T12:40:30.161Z,41.31
2018-06-23T12:44:33.620Z,41.39
2018-06-23T12:48:37.109Z,41.49
2018-06-23T12:52:40.586Z,42.41
2018-06-23T12:56:44.043Z,42.13
2018-06-23T13:00:47.527Z,42.50
2018-06-23T13:04:51.040Z,41.22
2018-06-23T13:08:54.599Z,41.19
2018-06-23T13:12:59.256Z,41.76
2018-06-23T13:17:02.909Z,39.94
2018-06-23T13:21:06.377Z,39.69
2018-06-23T13:25:09.918Z,39.69
2018-06-23T13:29:13.422Z,39.42
2018-06-23T13:33:16.897Z,38.60
2018-06-23T13:37:21.641Z,39.01
2018-06-23T13:41:25.275Z,37.43
2018-06-23T13:45:28.844Z,37.65
2018-06-23T13:49:32.313Z,38.97
2018-06-23T13:53:35.775Z,37.93
2018-06-23T13:57:39.275Z,38.02
2018-06-23T14:01:42.739Z,36.88
2018-06-23T14:05:46.194Z,35.24
2018-06-23T14:09:50.732Z,35.38
2018-06-23T14:13:54.225Z,35.46
2018-06-23T14:17:57.748Z,34.52
2018-06-23T14:22:02.313Z,35.33
2018-06-23T14:26:05.758Z,35.52
2018-06-23T14:30:09.327Z,35.39
2018-06-23T14:34:12.853Z,35.24
2018-06-23T14:38:16.503Z,34.79
2018-06-23T14:42:19.989Z,35.65
2018-06-23T14:46:23.461Z,35.62
2018-06-23T14:50:28.108Z,35.51
2018-06-23T14:54:33.698Z,34.87
2018-06-23T14:58:38.220Z,34.85
2018-06-23T15:02:41.690Z,34.73
2018-06-23T15:06:45.170Z,33.89
2018-06-23T15:11:00.948Z,33.38
2018-06-23T15:15:04.533Z,33.94
2018-06-23T15:19:07.989Z,33.15
2018-06-23T15:23:12.978Z,32.91
2018-06-23T15:27:17.576Z,33.75
2018-06-23T15:31:23.762Z,34.12
2018-06-23T15:35:27.201Z,32.63
2018-06-23T15:39:30.793Z,32.86
2018-06-23T15:43:35.480Z,32.83
2018-06-23T15:47:39.032Z,32.40
2018-06-23T15:51:42.463Z,33.20
2018-06-23T15:55:46.054Z,32.76
2018-06-23T15:59:49.522Z,32.82
2018-06-23T16:03:54.748Z,31.65
2018-06-23T16:07:58.685Z,31.97
2018-06-23T16:12:03.445Z,31.48
2018-06-23T16:16:08.127Z,31.22
2018-06-23T16:20:11.980Z,30.84
2018-06-23T16:24:15.456Z,31.52
2018-06-23T16:28:19.030Z,31.92
2018-06-23T16:32:24.013Z,32.26
2018-06-23T16:36:27.915Z,32.50
2018-06-23T16:40:31.487Z,32.92
2018-06-23T16:44:35.182Z,33.77
2018-06-23T16:48:38.856Z,33.26
2018-06-23T16:52:42.413Z,33.64
2018-06-23T16:56:45.861Z,33.89
2018-06-23T17:00:49.323Z,33.58
2018-06-23T17:04:52.826Z,34.05
2018-06-23T17:08:56.255Z,34.68
2018-06-23T17:12:59.755Z,35.23
2018-06-23T17:17:03.186Z,35.40
2018-06-23T17:21:06.647Z,35.25
2018-06-23T17:25:10.118Z,35.73
2018-06-23T17:29:13.701Z,35.39
2018-06-23T17:33:17.184Z,35.49
2018-06-23T17:37:20.668Z,35.44
2018-06-23T17:41:24.137Z,36.02
2018-06-23T17:45:27.619Z,35.78
2018-06-23T17:49:31.219Z,35.54
2018-06-23T17:53:34.701Z,35.99
2018-06-23T17:57:38.265Z,36.04
2018-06-23T18:01:41.686Z,36.83
2018-06-23T18:05:45.374Z,37.76
2018-06-23T18:09:48.837Z,37.26
2018-06-23T18:13:52.331Z,37.22
2018-06-23T18:17:55.789Z,38.02
2018-06-23T18:22:00.241Z,38.54
2018-06-23T18:26:03.754Z,38.21
2018-06-23T18:30:07.321Z,38.66
2018-06-23T18:34:10.767Z,39.26
2018-06-23T18:38:14.239Z,39.46
2018-06-23T18:42:19.725Z,39.48
2018-06-23T18:46:23.208Z,39.14
2018-06-23T18:50:26.748Z,40.01
2018-06-23T18:54:30.265Z,39.91
2018-06-23T18:58:33.722Z,40.15
2018-06-23T19:02:37.176Z,40.03
2018-06-23T19:06:40.602Z,40.08
2018-06-23T19:10:44.040Z,40.30
2018-06-23T19:43:45.109Z,41.38
2018-06-23T22:04:59.985Z,45.27
2018-06-23T22:09:03.680Z,45.21
2018-06-23T22:13:07.200Z,45.21
2018-06-23T22:17:10.736Z,45.19
2018-06-23T22:21:14.199Z,45.20
2018-06-23T22:25:17.664Z,45.50
2018-06-23T22:29:21.132Z,45.50
2018-06-23T22:34:27.829Z,45.23
2018-06-23T22:38:31.285Z,45.38
2018-06-23T22:42:35.750Z,45.40
2018-06-23T22:46:39.302Z,45.67
2018-06-23T22:50:42.758Z,45.70
2018-06-23T22:54:46.217Z,45.66
2018-06-23T22:58:49.660Z,45.86
2018-06-23T23:02:53.083Z,45.90
2018-06-23T23:07:06.545Z,45.87
2018-06-23T23:11:19.785Z,46.03
2018-06-23T23:15:32.173Z,46.37
2018-06-23T23:19:44.514Z,46.60
2018-06-23T23:23:56.878Z,46.56
2018-06-23T23:28:00.324Z,47.03
2018-06-23T23:32:03.762Z,47.09
2018-06-23T23:36:07.262Z,46.93
2018-06-23T23:40:10.688Z,47.20
2018-06-23T23:44:14.199Z,46.97
2018-06-23T23:48:17.774Z,47.97
2018-06-23T23:52:21.291Z,47.98
2018-06-23T23:56:24.730Z,47.82
